sensor_id;sensor_type;location;lat;lon;timestamp;P1;durP1;ratioP1;P2;durP2;ratioP2
14760;SDS011;7472;45.396;5.272;2023-05-07T00:00:34;2.03;;;1.00;;
14760;SDS011;7472;45.396;5.272;2023-05-07T00:03:02;2.92;;;1.30;;
14760;SDS011;7472;45.396;5.272;2023-05-07T00:05:31;2.45;;;0.80;;
14760;SDS011;7472;45.396;5.272;2023-05-07T00:07:59;1.80;;;1.52;;
14760;SDS011;7472;45.396;5.272;2023-05-07T00:10:26;3.20;;;1.17;;
14760;SDS011;7472;45.396;5.272;2023-05-07T00:12:54;7.53;;;1.10;;
14760;SDS011;7472;45.396;5.272;2023-05-07T00:15:21;4.03;;;1.02;;
14760;SDS011;7472;45.396;5.272;2023-05-07T00:17:48;2.13;;;1.13;;
14760;SDS011;7472;45.396;5.272;2023-05-07T00:20:16;2.20;;;0.90;;
14760;SDS011;7472;45.396;5.272;2023-05-07T00:22:44;1.45;;;1.13;;
14760;SDS011;7472;45.396;5.272;2023-05-07T00:25:12;3.00;;;1.25;;
14760;SDS011;7472;45.396;5.272;2023-05-07T00:27:39;2.30;;;1.00;;
14760;SDS011;7472;45.396;5.272;2023-05-07T00:30:07;1.65;;;1.13;;
14760;SDS011;7472;45.396;5.272;2023-05-07T00:32:34;1.23;;;0.90;;
14760;SDS011;7472;45.396;5.272;2023-05-07T00:35:02;2.92;;;1.20;;
14760;SDS011;7472;45.396;5.272;2023-05-07T00:37:29;1.88;;;1.20;;
14760;SDS011;7472;45.396;5.272;2023-05-07T00:39:58;3.22;;;0.90;;
14760;SDS011;7472;45.396;5.272;2023-05-07T00:42:25;1.15;;;1.00;;
14760;SDS011;7472;45.396;5.272;2023-05-07T00:44:53;2.42;;;0.95;;
14760;SDS011;7472;45.396;5.272;2023-05-07T00:47:20;4.07;;;1.10;;
14760;SDS011;7472;45.396;5.272;2023-05-07T00:49:48;2.78;;;0.90;;
14760;SDS011;7472;45.396;5.272;2023-05-07T00:52:16;2.95;;;1.08;;
14760;SDS011;7472;45.396;5.272;2023-05-07T00:54:43;1.38;;;0.93;;
14760;SDS011;7472;45.396;5.272;2023-05-07T00:57:12;1.60;;;1.00;;
14760;SDS011;7472;45.396;5.272;2023-05-07T00:59:40;1.98;;;0.93;;
14760;SDS011;7472;45.396;5.272;2023-05-07T01:02:08;1.00;;;1.00;;
14760;SDS011;7472;45.396;5.272;2023-05-07T01:04:35;2.67;;;1.10;;
14760;SDS011;7472;45.396;5.272;2023-05-07T01:07:03;1.85;;;1.00;;
14760;SDS011;7472;45.396;5.272;2023-05-07T01:09:30;2.65;;;1.27;;
14760;SDS011;7472;45.396;5.272;2023-05-07T01:12:00;1.08;;;0.98;;
14760;SDS011;7472;45.396;5.272;2023-05-07T01:14:29;1.58;;;0.80;;
14760;SDS011;7472;45.396;5.272;2023-05-07T01:16:58;2.08;;;1.23;;
14760;SDS011;7472;45.396;5.272;2023-05-07T01:19:25;5.65;;;1.50;;
14760;SDS011;7472;45.396;5.272;2023-05-07T01:21:53;2.35;;;0.90;;
14760;SDS011;7472;45.396;5.272;2023-05-07T01:24:25;2.03;;;1.00;;
14760;SDS011;7472;45.396;5.272;2023-05-07T01:26:53;1.20;;;1.10;;
14760;SDS011;7472;45.396;5.272;2023-05-07T01:29:20;3.55;;;1.10;;
14760;SDS011;7472;45.396;5.272;2023-05-07T01:31:47;1.88;;;1.23;;
14760;SDS011;7472;45.396;5.272;2023-05-07T01:34:15;4.07;;;1.00;;
14760;SDS011;7472;45.396;5.272;2023-05-07T01:36:44;2.97;;;1.17;;
14760;SDS011;7472;45.396;5.272;2023-05-07T01:39:12;2.25;;;0.80;;
14760;SDS011;7472;45.396;5.272;2023-05-07T01:41:41;1.15;;;1.05;;
14760;SDS011;7472;45.396;5.272;2023-05-07T01:44:10;5.30;;;0.98;;
14760;SDS011;7472;45.396;5.272;2023-05-07T01:46:38;2.25;;;1.05;;
14760;SDS011;7472;45.396;5.272;2023-05-07T01:49:05;1.17;;;1.00;;
14760;SDS011;7472;45.396;5.272;2023-05-07T01:51:32;2.20;;;1.00;;
14760;SDS011;7472;45.396;5.272;2023-05-07T01:54:00;2.28;;;0.88;;
14760;SDS011;7472;45.396;5.272;2023-05-07T01:56:28;1.40;;;0.90;;
14760;SDS011;7472;45.396;5.272;2023-05-07T01:58:56;1.60;;;1.00;;
14760;SDS011;7472;45.396;5.272;2023-05-07T02:01:24;2.10;;;1.00;;
14760;SDS011;7472;45.396;5.272;2023-05-07T02:03:51;1.63;;;1.33;;
14760;SDS011;7472;45.396;5.272;2023-05-07T02:06:18;1.08;;;0.90;;
14760;SDS011;7472;45.396;5.272;2023-05-07T02:08:46;1.25;;;1.15;;
14760;SDS011;7472;45.396;5.272;2023-05-07T02:11:13;3.13;;;0.85;;
14760;SDS011;7472;45.396;5.272;2023-05-07T02:13:41;1.67;;;1.25;;
14760;SDS011;7472;45.396;5.272;2023-05-07T02:16:10;1.42;;;1.00;;
14760;SDS011;7472;45.396;5.272;2023-05-07T02:18:39;1.80;;;1.08;;
14760;SDS011;7472;45.396;5.272;2023-05-07T02:21:06;1.08;;;1.00;;
14760;SDS011;7472;45.396;5.272;2023-05-07T02:23:34;2.45;;;0.98;;
14760;SDS011;7472;45.396;5.272;2023-05-07T02:26:01;1.50;;;1.10;;
14760;SDS011;7472;45.396;5.272;2023-05-07T02:28:28;2.35;;;1.10;;
14760;SDS011;7472;45.396;5.272;2023-05-07T02:30:56;1.85;;;1.45;;
14760;SDS011;7472;45.396;5.272;2023-05-07T02:33:25;1.50;;;0.90;;
14760;SDS011;7472;45.396;5.272;2023-05-07T02:35:52;3.33;;;0.90;;
14760;SDS011;7472;45.396;5.272;2023-05-07T02:38:20;1.27;;;0.98;;
14760;SDS011;7472;45.396;5.272;2023-05-07T02:40:47;1.20;;;1.10;;
14760;SDS011;7472;45.396;5.272;2023-05-07T02:43:14;2.15;;;0.95;;
14760;SDS011;7472;45.396;5.272;2023-05-07T02:45:42;2.10;;;1.05;;
14760;SDS011;7472;45.396;5.272;2023-05-07T02:48:09;2.25;;;1.30;;
14760;SDS011;7472;45.396;5.272;2023-05-07T02:50:38;2.85;;;1.10;;
14760;SDS011;7472;45.396;5.272;2023-05-07T02:53:05;2.55;;;1.08;;
14760;SDS011;7472;45.396;5.272;2023-05-07T02:55:33;1.75;;;1.20;;
14760;SDS011;7472;45.396;5.272;2023-05-07T02:58:00;2.38;;;1.30;;
14760;SDS011;7472;45.396;5.272;2023-05-07T03:00:28;1.40;;;1.15;;
14760;SDS011;7472;45.396;5.272;2023-05-07T03:02:55;1.35;;;0.88;;
14760;SDS011;7472;45.396;5.272;2023-05-07T03:05:22;2.72;;;1.25;;
14760;SDS011;7472;45.396;5.272;2023-05-07T03:07:51;1.75;;;1.63;;
14760;SDS011;7472;45.396;5.272;2023-05-07T03:10:19;1.55;;;1.00;;
14760;SDS011;7472;45.396;5.272;2023-05-07T03:12:46;1.88;;;1.02;;
14760;SDS011;7472;45.396;5.272;2023-05-07T03:15:13;1.80;;;1.20;;
14760;SDS011;7472;45.396;5.272;2023-05-07T03:17:41;1.52;;;1.00;;
14760;SDS011;7472;45.396;5.272;2023-05-07T03:20:08;1.95;;;1.60;;
14760;SDS011;7472;45.396;5.272;2023-05-07T03:22:37;3.78;;;1.30;;
14760;SDS011;7472;45.396;5.272;2023-05-07T03:25:06;1.10;;;1.00;;
14760;SDS011;7472;45.396;5.272;2023-05-07T03:27:34;1.30;;;1.20;;
14760;SDS011;7472;45.396;5.272;2023-05-07T03:30:02;5.72;;;1.50;;
14760;SDS011;7472;45.396;5.272;2023-05-07T03:32:29;1.23;;;1.13;;
14760;SDS011;7472;45.396;5.272;2023-05-07T03:34:56;2.65;;;1.27;;
14760;SDS011;7472;45.396;5.272;2023-05-07T03:37:24;2.60;;;1.10;;
14760;SDS011;7472;45.396;5.272;2023-05-07T03:39:51;3.47;;;1.35;;
14760;SDS011;7472;45.396;5.272;2023-05-07T03:42:20;1.38;;;1.20;;
14760;SDS011;7472;45.396;5.272;2023-05-07T03:44:47;2.15;;;1.58;;
14760;SDS011;7472;45.396;5.272;2023-05-07T03:47:15;1.95;;;1.10;;
14760;SDS011;7472;45.396;5.272;2023-05-07T03:49:42;2.33;;;1.30;;
14760;SDS011;7472;45.396;5.272;2023-05-07T03:52:10;1.52;;;1.15;;
14760;SDS011;7472;45.396;5.272;2023-05-07T03:54:37;1.77;;;1.50;;
14760;SDS011;7472;45.396;5.272;2023-05-07T03:57:04;2.08;;;1.15;;
14760;SDS011;7472;45.396;5.272;2023-05-07T03:59:33;1.27;;;1.17;;
14760;SDS011;7472;45.396;5.272;2023-05-07T04:02:00;1.30;;;1.02;;
14760;SDS011;7472;45.396;5.272;2023-05-07T04:04:28;4.47;;;1.27;;
14760;SDS011;7472;45.396;5.272;2023-05-07T04:06:57;1.60;;;1.02;;
14760;SDS011;7472;45.396;5.272;2023-05-07T04:09:25;2.20;;;1.30;;
14760;SDS011;7472;45.396;5.272;2023-05-07T04:11:53;3.00;;;1.55;;
14760;SDS011;7472;45.396;5.272;2023-05-07T04:14:20;1.40;;;1.30;;
14760;SDS011;7472;45.396;5.272;2023-05-07T04:16:49;3.13;;;1.50;;
14760;SDS011;7472;45.396;5.272;2023-05-07T04:19:16;5.63;;;1.52;;
14760;SDS011;7472;45.396;5.272;2023-05-07T04:21:43;2.67;;;1.55;;
14760;SDS011;7472;45.396;5.272;2023-05-07T04:24:11;2.67;;;1.63;;
14760;SDS011;7472;45.396;5.272;2023-05-07T04:26:39;2.17;;;1.42;;
14760;SDS011;7472;45.396;5.272;2023-05-07T04:29:06;3.30;;;1.65;;
14760;SDS011;7472;45.396;5.272;2023-05-07T04:31:33;6.78;;;1.73;;
14760;SDS011;7472;45.396;5.272;2023-05-07T04:34:02;3.40;;;1.70;;
14760;SDS011;7472;45.396;5.272;2023-05-07T04:36:30;3.55;;;1.88;;
14760;SDS011;7472;45.396;5.272;2023-05-07T04:38:58;1.88;;;1.33;;
14760;SDS011;7472;45.396;5.272;2023-05-07T04:41:25;2.03;;;1.50;;
14760;SDS011;7472;45.396;5.272;2023-05-07T04:43:53;2.95;;;1.70;;
14760;SDS011;7472;45.396;5.272;2023-05-07T04:46:22;4.55;;;1.33;;
14760;SDS011;7472;45.396;5.272;2023-05-07T04:48:50;3.72;;;1.30;;
14760;SDS011;7472;45.396;5.272;2023-05-07T04:51:18;3.05;;;1.58;;
14760;SDS011;7472;45.396;5.272;2023-05-07T04:53:46;1.75;;;1.65;;
14760;SDS011;7472;45.396;5.272;2023-05-07T04:56:13;2.30;;;1.50;;
14760;SDS011;7472;45.396;5.272;2023-05-07T04:58:41;3.47;;;2.03;;
14760;SDS011;7472;45.396;5.272;2023-05-07T05:01:08;3.17;;;2.30;;
14760;SDS011;7472;45.396;5.272;2023-05-07T05:03:35;2.13;;;1.80;;
14760;SDS011;7472;45.396;5.272;2023-05-07T05:06:04;4.97;;;1.88;;
14760;SDS011;7472;45.396;5.272;2023-05-07T05:08:33;3.80;;;2.47;;
14760;SDS011;7472;45.396;5.272;2023-05-07T05:11:00;3.80;;;2.70;;
14760;SDS011;7472;45.396;5.272;2023-05-07T05:13:28;6.38;;;3.17;;
14760;SDS011;7472;45.396;5.272;2023-05-07T05:15:55;4.97;;;2.90;;
14760;SDS011;7472;45.396;5.272;2023-05-07T05:18:22;3.30;;;2.35;;
14760;SDS011;7472;45.396;5.272;2023-05-07T05:20:51;3.72;;;2.28;;
14760;SDS011;7472;45.396;5.272;2023-05-07T05:23:18;2.53;;;2.15;;
14760;SDS011;7472;45.396;5.272;2023-05-07T05:25:47;3.55;;;1.83;;
14760;SDS011;7472;45.396;5.272;2023-05-07T05:28:14;3.65;;;2.03;;
14760;SDS011;7472;45.396;5.272;2023-05-07T05:30:42;6.07;;;2.40;;
14760;SDS011;7472;45.396;5.272;2023-05-07T05:33:09;5.40;;;2.50;;
14760;SDS011;7472;45.396;5.272;2023-05-07T05:35:37;3.47;;;2.20;;
14760;SDS011;7472;45.396;5.272;2023-05-07T05:38:04;2.65;;;2.42;;
14760;SDS011;7472;45.396;5.272;2023-05-07T05:40:31;4.70;;;1.95;;
14760;SDS011;7472;45.396;5.272;2023-05-07T05:43:00;5.25;;;2.40;;
14760;SDS011;7472;45.396;5.272;2023-05-07T05:45:27;3.45;;;1.70;;
14760;SDS011;7472;45.396;5.272;2023-05-07T05:47:55;1.98;;;1.60;;
14760;SDS011;7472;45.396;5.272;2023-05-07T05:50:23;3.05;;;1.80;;
14760;SDS011;7472;45.396;5.272;2023-05-07T05:52:50;2.42;;;1.77;;
14760;SDS011;7472;45.396;5.272;2023-05-07T05:55:18;3.15;;;1.85;;
14760;SDS011;7472;45.396;5.272;2023-05-07T05:57:46;2.42;;;1.80;;
14760;SDS011;7472;45.396;5.272;2023-05-07T06:00:15;4.05;;;1.67;;
14760;SDS011;7472;45.396;5.272;2023-05-07T06:02:42;1.45;;;1.30;;
14760;SDS011;7472;45.396;5.272;2023-05-07T06:05:10;2.53;;;1.55;;
14760;SDS011;7472;45.396;5.272;2023-05-07T06:07:37;3.92;;;1.42;;
14760;SDS011;7472;45.396;5.272;2023-05-07T06:10:05;1.60;;;1.42;;
14760;SDS011;7472;45.396;5.272;2023-05-07T06:12:32;1.35;;;1.23;;
14760;SDS011;7472;45.396;5.272;2023-05-07T06:15:00;1.38;;;1.13;;
14760;SDS011;7472;45.396;5.272;2023-05-07T06:17:29;1.88;;;1.42;;
14760;SDS011;7472;45.396;5.272;2023-05-07T06:19:56;1.95;;;1.33;;
14760;SDS011;7472;45.396;5.272;2023-05-07T06:22:24;2.95;;;1.60;;
14760;SDS011;7472;45.396;5.272;2023-05-07T06:24:51;1.45;;;1.13;;
14760;SDS011;7472;45.396;5.272;2023-05-07T06:27:18;2.05;;;1.33;;
14760;SDS011;7472;45.396;5.272;2023-05-07T06:29:47;1.75;;;1.20;;
14760;SDS011;7472;45.396;5.272;2023-05-07T06:32:15;3.45;;;1.60;;
14760;SDS011;7472;45.396;5.272;2023-05-07T06:34:44;2.58;;;1.35;;
14760;SDS011;7472;45.396;5.272;2023-05-07T06:37:12;1.60;;;1.20;;
14760;SDS011;7472;45.396;5.272;2023-05-07T06:39:39;2.15;;;1.55;;
14760;SDS011;7472;45.396;5.272;2023-05-07T06:42:07;1.00;;;0.82;;
14760;SDS011;7472;45.396;5.272;2023-05-07T06:44:34;2.97;;;1.00;;
14760;SDS011;7472;45.396;5.272;2023-05-07T06:47:02;3.33;;;1.20;;
14760;SDS011;7472;45.396;5.272;2023-05-07T06:49:30;1.85;;;1.38;;
14760;SDS011;7472;45.396;5.272;2023-05-07T06:52:00;1.55;;;1.13;;
14760;SDS011;7472;45.396;5.272;2023-05-07T06:54:28;2.67;;;1.17;;
14760;SDS011;7472;45.396;5.272;2023-05-07T06:56:56;1.65;;;1.55;;
14760;SDS011;7472;45.396;5.272;2023-05-07T06:59:23;1.40;;;1.15;;
14760;SDS011;7472;45.396;5.272;2023-05-07T07:01:51;1.95;;;1.42;;
14760;SDS011;7472;45.396;5.272;2023-05-07T07:04:18;1.75;;;1.10;;
14760;SDS011;7472;45.396;5.272;2023-05-07T07:06:47;2.28;;;1.10;;
14760;SDS011;7472;45.396;5.272;2023-05-07T07:09:16;1.05;;;1.02;;
14760;SDS011;7472;45.396;5.272;2023-05-07T07:11:43;3.63;;;1.20;;
14760;SDS011;7472;45.396;5.272;2023-05-07T07:14:11;1.58;;;1.00;;
14760;SDS011;7472;45.396;5.272;2023-05-07T07:16:38;1.10;;;1.00;;
14760;SDS011;7472;45.396;5.272;2023-05-07T07:19:06;2.88;;;1.40;;
14760;SDS011;7472;45.396;5.272;2023-05-07T07:21:33;1.30;;;1.10;;
14760;SDS011;7472;45.396;5.272;2023-05-07T07:24:00;1.40;;;1.10;;
14760;SDS011;7472;45.396;5.272;2023-05-07T07:26:29;1.58;;;1.35;;
14760;SDS011;7472;45.396;5.272;2023-05-07T07:28:57;1.13;;;1.02;;
14760;SDS011;7472;45.396;5.272;2023-05-07T07:31:24;2.53;;;1.25;;
14760;SDS011;7472;45.396;5.272;2023-05-07T07:33:51;1.42;;;1.15;;
14760;SDS011;7472;45.396;5.272;2023-05-07T07:36:19;2.42;;;1.30;;
14760;SDS011;7472;45.396;5.272;2023-05-07T07:38:46;3.35;;;1.52;;
14760;SDS011;7472;45.396;5.272;2023-05-07T07:41:13;1.33;;;1.10;;
14760;SDS011;7472;45.396;5.272;2023-05-07T07:43:42;1.98;;;1.38;;
14760;SDS011;7472;45.396;5.272;2023-05-07T07:46:11;2.95;;;2.00;;
14760;SDS011;7472;45.396;5.272;2023-05-07T07:48:39;1.98;;;1.77;;
14760;SDS011;7472;45.396;5.272;2023-05-07T07:51:06;2.22;;;1.60;;
14760;SDS011;7472;45.396;5.272;2023-05-07T07:53:33;1.65;;;1.50;;
14760;SDS011;7472;45.396;5.272;2023-05-07T07:56:01;3.25;;;1.23;;
14760;SDS011;7472;45.396;5.272;2023-05-07T07:58:28;1.92;;;1.10;;
14760;SDS011;7472;45.396;5.272;2023-05-07T08:00:57;1.30;;;1.20;;
14760;SDS011;7472;45.396;5.272;2023-05-07T08:03:24;4.30;;;1.60;;
14760;SDS011;7472;45.396;5.272;2023-05-07T08:05:53;3.25;;;2.47;;
14760;SDS011;7472;45.396;5.272;2023-05-07T08:08:20;2.38;;;1.90;;
14760;SDS011;7472;45.396;5.272;2023-05-07T08:10:47;2.92;;;2.03;;
14760;SDS011;7472;45.396;5.272;2023-05-07T08:13:15;2.47;;;1.40;;
14760;SDS011;7472;45.396;5.272;2023-05-07T08:15:43;3.85;;;1.58;;
14760;SDS011;7472;45.396;5.272;2023-05-07T08:18:11;4.88;;;2.20;;
14760;SDS011;7472;45.396;5.272;2023-05-07T08:20:39;2.00;;;1.63;;
14760;SDS011;7472;45.396;5.272;2023-05-07T08:23:06;2.60;;;2.33;;
14760;SDS011;7472;45.396;5.272;2023-05-07T08:25:34;2.13;;;1.90;;
14760;SDS011;7472;45.396;5.272;2023-05-07T08:28:02;3.58;;;1.27;;
14760;SDS011;7472;45.396;5.272;2023-05-07T08:30:29;2.00;;;1.38;;
14760;SDS011;7472;45.396;5.272;2023-05-07T08:32:57;2.28;;;1.35;;
14760;SDS011;7472;45.396;5.272;2023-05-07T08:35:26;3.40;;;1.58;;
14760;SDS011;7472;45.396;5.272;2023-05-07T08:37:53;1.45;;;1.20;;
14760;SDS011;7472;45.396;5.272;2023-05-07T08:40:21;2.47;;;1.40;;
14760;SDS011;7472;45.396;5.272;2023-05-07T08:42:51;4.63;;;1.58;;
14760;SDS011;7472;45.396;5.272;2023-05-07T08:45:19;1.98;;;1.70;;
14760;SDS011;7472;45.396;5.272;2023-05-07T08:47:48;1.67;;;1.58;;
14760;SDS011;7472;45.396;5.272;2023-05-07T08:50:18;2.65;;;1.77;;
14760;SDS011;7472;45.396;5.272;2023-05-07T08:52:47;4.15;;;1.50;;
14760;SDS011;7472;45.396;5.272;2023-05-07T08:55:15;1.60;;;1.42;;
14760;SDS011;7472;45.396;5.272;2023-05-07T08:57:42;3.30;;;1.50;;
14760;SDS011;7472;45.396;5.272;2023-05-07T09:00:10;1.48;;;1.38;;
14760;SDS011;7472;45.396;5.272;2023-05-07T09:02:37;3.80;;;1.65;;
14760;SDS011;7472;45.396;5.272;2023-05-07T09:05:05;2.70;;;1.48;;
14760;SDS011;7472;45.396;5.272;2023-05-07T09:07:33;3.85;;;1.80;;
14760;SDS011;7472;45.396;5.272;2023-05-07T09:10:02;3.15;;;1.50;;
14760;SDS011;7472;45.396;5.272;2023-05-07T09:12:30;4.35;;;1.63;;
14760;SDS011;7472;45.396;5.272;2023-05-07T09:14:58;2.60;;;1.70;;
14760;SDS011;7472;45.396;5.272;2023-05-07T09:17:26;2.15;;;1.75;;
14760;SDS011;7472;45.396;5.272;2023-05-07T09:19:53;2.35;;;1.70;;
14760;SDS011;7472;45.396;5.272;2023-05-07T09:22:20;4.68;;;2.05;;
14760;SDS011;7472;45.396;5.272;2023-05-07T09:24:48;2.95;;;1.55;;
14760;SDS011;7472;45.396;5.272;2023-05-07T09:27:17;2.25;;;2.03;;
14760;SDS011;7472;45.396;5.272;2023-05-07T09:29:44;2.90;;;1.88;;
14760;SDS011;7472;45.396;5.272;2023-05-07T09:32:12;3.35;;;2.10;;
14760;SDS011;7472;45.396;5.272;2023-05-07T09:34:39;3.83;;;2.10;;
14760;SDS011;7472;45.396;5.272;2023-05-07T09:37:08;3.00;;;2.20;;
14760;SDS011;7472;45.396;5.272;2023-05-07T09:39:39;4.43;;;2.15;;
14760;SDS011;7472;45.396;5.272;2023-05-07T09:42:06;2.58;;;2.03;;
14760;SDS011;7472;45.396;5.272;2023-05-07T09:44:35;5.10;;;2.13;;
14760;SDS011;7472;45.396;5.272;2023-05-07T09:47:04;3.67;;;2.20;;
14760;SDS011;7472;45.396;5.272;2023-05-07T09:49:33;3.30;;;2.10;;
14760;SDS011;7472;45.396;5.272;2023-05-07T09:52:01;2.90;;;2.40;;
14760;SDS011;7472;45.396;5.272;2023-05-07T09:54:31;2.47;;;1.83;;
14760;SDS011;7472;45.396;5.272;2023-05-07T09:56:58;3.42;;;2.55;;
14760;SDS011;7472;45.396;5.272;2023-05-07T09:59:27;2.80;;;2.40;;
14760;SDS011;7472;45.396;5.272;2023-05-07T10:01:57;3.63;;;2.10;;
14760;SDS011;7472;45.396;5.272;2023-05-07T10:04:25;2.35;;;2.20;;
14760;SDS011;7472;45.396;5.272;2023-05-07T10:06:52;3.95;;;2.47;;
14760;SDS011;7472;45.396;5.272;2023-05-07T10:09:20;2.78;;;2.47;;
14760;SDS011;7472;45.396;5.272;2023-05-07T10:11:48;2.70;;;2.50;;
14760;SDS011;7472;45.396;5.272;2023-05-07T10:14:16;3.72;;;2.08;;
14760;SDS011;7472;45.396;5.272;2023-05-07T10:16:44;2.60;;;2.30;;
14760;SDS011;7472;45.396;5.272;2023-05-07T10:19:12;3.47;;;2.28;;
14760;SDS011;7472;45.396;5.272;2023-05-07T10:21:43;4.90;;;2.92;;
14760;SDS011;7472;45.396;5.272;2023-05-07T10:24:12;7.70;;;3.58;;
14760;SDS011;7472;45.396;5.272;2023-05-07T10:26:43;4.57;;;2.72;;
14760;SDS011;7472;45.396;5.272;2023-05-07T10:29:12;2.53;;;2.33;;
14760;SDS011;7472;45.396;5.272;2023-05-07T10:31:47;3.88;;;2.80;;
14760;SDS011;7472;45.396;5.272;2023-05-07T10:34:19;6.93;;;3.00;;
14760;SDS011;7472;45.396;5.272;2023-05-07T10:36:48;4.45;;;3.05;;
14760;SDS011;7472;45.396;5.272;2023-05-07T10:39:17;3.50;;;2.50;;
14760;SDS011;7472;45.396;5.272;2023-05-07T10:41:44;3.58;;;3.13;;
14760;SDS011;7472;45.396;5.272;2023-05-07T10:44:11;2.90;;;2.70;;
14760;SDS011;7472;45.396;5.272;2023-05-07T10:47:03;3.03;;;2.28;;
14760;SDS011;7472;45.396;5.272;2023-05-07T10:49:32;2.78;;;2.38;;
14760;SDS011;7472;45.396;5.272;2023-05-07T10:52:12;3.90;;;2.92;;
14760;SDS011;7472;45.396;5.272;2023-05-07T10:54:40;3.30;;;3.00;;
14760;SDS011;7472;45.396;5.272;2023-05-07T10:59:54;3.40;;;3.10;;
14760;SDS011;7472;45.396;5.272;2023-05-07T11:02:21;3.60;;;3.30;;
14760;SDS011;7472;45.396;5.272;2023-05-07T11:07:32;3.83;;;3.53;;
14760;SDS011;7472;45.396;5.272;2023-05-07T11:10:01;4.47;;;3.15;;
14760;SDS011;7472;45.396;5.272;2023-05-07T11:15:31;4.53;;;2.90;;
14760;SDS011;7472;45.396;5.272;2023-05-07T11:18:00;4.75;;;3.40;;
14760;SDS011;7472;45.396;5.272;2023-05-07T11:23:18;5.85;;;3.97;;
14760;SDS011;7472;45.396;5.272;2023-05-07T11:26:06;4.13;;;3.80;;
14760;SDS011;7472;45.396;5.272;2023-05-07T11:28:36;3.83;;;3.50;;
14760;SDS011;7472;45.396;5.272;2023-05-07T11:31:03;4.70;;;3.60;;
14760;SDS011;7472;45.396;5.272;2023-05-07T11:33:31;4.97;;;4.25;;
14760;SDS011;7472;45.396;5.272;2023-05-07T11:35:59;4.75;;;4.25;;
14760;SDS011;7472;45.396;5.272;2023-05-07T11:38:28;4.90;;;4.10;;
14760;SDS011;7472;45.396;5.272;2023-05-07T11:40:56;4.00;;;3.70;;
14760;SDS011;7472;45.396;5.272;2023-05-07T11:43:24;4.38;;;3.22;;
14760;SDS011;7472;45.396;5.272;2023-05-07T11:45:51;4.00;;;3.70;;
14760;SDS011;7472;45.396;5.272;2023-05-07T11:48:19;4.50;;;4.07;;
14760;SDS011;7472;45.396;5.272;2023-05-07T11:50:51;5.70;;;4.10;;
14760;SDS011;7472;45.396;5.272;2023-05-07T11:53:18;5.80;;;4.50;;
14760;SDS011;7472;45.396;5.272;2023-05-07T11:55:47;5.13;;;4.72;;
14760;SDS011;7472;45.396;5.272;2023-05-07T11:58:20;4.93;;;4.22;;
14760;SDS011;7472;45.396;5.272;2023-05-07T12:00:48;5.50;;;4.40;;
14760;SDS011;7472;45.396;5.272;2023-05-07T12:03:16;5.25;;;4.43;;
14760;SDS011;7472;45.396;5.272;2023-05-07T12:05:44;6.63;;;4.32;;
14760;SDS011;7472;45.396;5.272;2023-05-07T12:08:13;7.28;;;4.72;;
14760;SDS011;7472;45.396;5.272;2023-05-07T12:10:41;5.38;;;4.88;;
14760;SDS011;7472;45.396;5.272;2023-05-07T12:13:15;4.38;;;3.97;;
14760;SDS011;7472;45.396;5.272;2023-05-07T12:15:42;5.25;;;4.18;;
14760;SDS011;7472;45.396;5.272;2023-05-07T12:18:10;4.97;;;4.40;;
14760;SDS011;7472;45.396;5.272;2023-05-07T12:20:38;4.97;;;4.20;;
14760;SDS011;7472;45.396;5.272;2023-05-07T12:23:05;5.63;;;4.75;;
14760;SDS011;7472;45.396;5.272;2023-05-07T12:25:34;5.65;;;4.40;;
14760;SDS011;7472;45.396;5.272;2023-05-07T12:28:01;4.82;;;4.40;;
14760;SDS011;7472;45.396;5.272;2023-05-07T12:30:31;4.82;;;4.45;;
14760;SDS011;7472;45.396;5.272;2023-05-07T12:32:58;5.47;;;4.95;;
14760;SDS011;7472;45.396;5.272;2023-05-07T12:35:26;4.70;;;4.30;;
14760;SDS011;7472;45.396;5.272;2023-05-07T12:37:57;5.32;;;4.60;;
14760;SDS011;7472;45.396;5.272;2023-05-07T12:40:25;5.05;;;4.55;;
14760;SDS011;7472;45.396;5.272;2023-05-07T12:43:01;5.03;;;4.28;;
14760;SDS011;7472;45.396;5.272;2023-05-07T12:45:30;6.00;;;5.38;;
14760;SDS011;7472;45.396;5.272;2023-05-07T12:48:01;4.32;;;4.03;;
14760;SDS011;7472;45.396;5.272;2023-05-07T12:50:30;4.63;;;4.32;;
14760;SDS011;7472;45.396;5.272;2023-05-07T12:52:58;4.70;;;4.03;;
14760;SDS011;7472;45.396;5.272;2023-05-07T12:55:26;4.20;;;3.88;;
14760;SDS011;7472;45.396;5.272;2023-05-07T12:57:53;4.82;;;4.32;;
14760;SDS011;7472;45.396;5.272;2023-05-07T13:00:37;4.35;;;3.95;;
14760;SDS011;7472;45.396;5.272;2023-05-07T13:03:04;4.63;;;4.28;;
14760;SDS011;7472;45.396;5.272;2023-05-07T13:05:32;4.60;;;4.05;;
14760;SDS011;7472;45.396;5.272;2023-05-07T13:08:00;4.53;;;4.07;;
14760;SDS011;7472;45.396;5.272;2023-05-07T13:10:27;6.53;;;4.40;;
14760;SDS011;7472;45.396;5.272;2023-05-07T13:12:55;4.78;;;4.35;;
14760;SDS011;7472;45.396;5.272;2023-05-07T13:15:22;5.35;;;4.82;;
14760;SDS011;7472;45.396;5.272;2023-05-07T13:17:51;5.15;;;4.60;;
14760;SDS011;7472;45.396;5.272;2023-05-07T13:20:18;5.57;;;4.28;;
14760;SDS011;7472;45.396;5.272;2023-05-07T13:22:45;5.10;;;3.83;;
14760;SDS011;7472;45.396;5.272;2023-05-07T13:25:13;2.78;;;2.55;;
14760;SDS011;7472;45.396;5.272;2023-05-07T13:27:40;4.47;;;4.05;;
14760;SDS011;7472;45.396;5.272;2023-05-07T13:30:08;4.63;;;4.22;;
14760;SDS011;7472;45.396;5.272;2023-05-07T13:32:35;6.53;;;5.15;;
14760;SDS011;7472;45.396;5.272;2023-05-07T13:35:04;4.60;;;4.20;;
14760;SDS011;7472;45.396;5.272;2023-05-07T13:37:32;4.97;;;3.90;;
14760;SDS011;7472;45.396;5.272;2023-05-07T13:39:59;4.30;;;3.65;;
14760;SDS011;7472;45.396;5.272;2023-05-07T13:42:26;2.65;;;2.45;;
14760;SDS011;7472;45.396;5.272;2023-05-07T13:44:54;4.32;;;4.03;;
14760;SDS011;7472;45.396;5.272;2023-05-07T13:47:21;4.88;;;4.03;;
14760;SDS011;7472;45.396;5.272;2023-05-07T13:49:49;4.68;;;4.28;;
14760;SDS011;7472;45.396;5.272;2023-05-07T13:52:17;2.55;;;1.77;;
14760;SDS011;7472;45.396;5.272;2023-05-07T13:54:45;1.67;;;1.33;;
14760;SDS011;7472;45.396;5.272;2023-05-07T13:57:12;2.38;;;1.48;;
14760;SDS011;7472;45.396;5.272;2023-05-07T13:59:40;5.65;;;1.52;;
14760;SDS011;7472;45.396;5.272;2023-05-07T14:02:07;2.75;;;1.38;;
14760;SDS011;7472;45.396;5.272;2023-05-07T14:04:35;1.50;;;1.40;;
14760;SDS011;7472;45.396;5.272;2023-05-07T14:07:02;2.08;;;1.23;;
14760;SDS011;7472;45.396;5.272;2023-05-07T14:09:31;1.33;;;1.23;;
14760;SDS011;7472;45.396;5.272;2023-05-07T14:11:59;1.95;;;1.60;;
14760;SDS011;7472;45.396;5.272;2023-05-07T14:14:26;1.42;;;1.33;;
14760;SDS011;7472;45.396;5.272;2023-05-07T14:16:53;1.83;;;1.40;;
14760;SDS011;7472;45.396;5.272;2023-05-07T14:19:21;1.92;;;1.35;;
14760;SDS011;7472;45.396;5.272;2023-05-07T14:21:48;2.65;;;1.50;;
14760;SDS011;7472;45.396;5.272;2023-05-07T14:24:16;1.60;;;1.20;;
14760;SDS011;7472;45.396;5.272;2023-05-07T14:26:45;3.00;;;2.75;;
14760;SDS011;7472;45.396;5.272;2023-05-07T14:29:12;2.40;;;2.20;;
14760;SDS011;7472;45.396;5.272;2023-05-07T14:31:40;3.30;;;2.90;;
14760;SDS011;7472;45.396;5.272;2023-05-07T14:34:08;3.80;;;3.47;;
14760;SDS011;7472;45.396;5.272;2023-05-07T14:36:35;4.28;;;3.88;;
14760;SDS011;7472;45.396;5.272;2023-05-07T14:39:03;4.15;;;3.60;;
14760;SDS011;7472;45.396;5.272;2023-05-07T14:41:30;3.75;;;3.17;;
14760;SDS011;7472;45.396;5.272;2023-05-07T14:43:59;5.90;;;3.38;;
14760;SDS011;7472;45.396;5.272;2023-05-07T14:46:29;2.00;;;1.90;;
14760;SDS011;7472;45.396;5.272;2023-05-07T14:48:56;2.40;;;2.08;;
14760;SDS011;7472;45.396;5.272;2023-05-07T14:51:23;2.60;;;2.20;;
14760;SDS011;7472;45.396;5.272;2023-05-07T14:53:53;1.40;;;1.30;;
14760;SDS011;7472;45.396;5.272;2023-05-07T14:56:20;2.22;;;1.50;;
14760;SDS011;7472;45.396;5.272;2023-05-07T14:58:48;1.20;;;1.10;;
14760;SDS011;7472;45.396;5.272;2023-05-07T15:01:16;1.65;;;1.45;;
14760;SDS011;7472;45.396;5.272;2023-05-07T15:03:44;4.05;;;1.60;;
14760;SDS011;7472;45.396;5.272;2023-05-07T15:06:11;2.17;;;1.52;;
14760;SDS011;7472;45.396;5.272;2023-05-07T15:08:38;2.35;;;2.15;;
14760;SDS011;7472;45.396;5.272;2023-05-07T15:11:06;7.93;;;1.88;;
14760;SDS011;7472;45.396;5.272;2023-05-07T15:13:33;2.63;;;1.95;;
14760;SDS011;7472;45.396;5.272;2023-05-07T15:16:00;3.03;;;1.77;;